createdAt,value
2019-04-11T00:00:52.100Z,5.04
2019-04-11T00:01:53.174Z,4.94
2019-04-11T00:02:51.739Z,4.94
2019-04-11T00:03:51.715Z,4.94
2019-04-11T00:04:52.547Z,4.91
2019-04-11T00:05:52.805Z,4.91
2019-04-11T00:06:52.015Z,4.92
2019-04-11T00:07:52.224Z,4.86
2019-04-11T00:09:51.571Z,4.80
2019-04-11T00:10:51.554Z,4.84
2019-04-11T00:11:52.366Z,4.84
2019-04-11T00:13:51.600Z,4.78
2019-04-11T00:14:51.831Z,4.78
2019-04-11T00:15:51.425Z,4.91
2019-04-11T00:17:52.348Z,4.80
2019-04-11T00:18:51.464Z,4.85
2019-04-11T00:19:51.612Z,4.91
2019-04-11T00:20:51.318Z,4.86
2019-04-11T00:23:51.240Z,4.91
2019-04-11T00:24:51.312Z,4.92
2019-04-11T00:25:51.635Z,4.91
2019-04-11T00:26:51.161Z,4.94
2019-04-11T00:27:51.139Z,4.86
2019-04-11T00:28:52.060Z,4.78
2019-04-11T00:29:51.431Z,4.84
2019-04-11T00:30:54.678Z,4.78
2019-04-11T00:33:50.992Z,4.75
2019-04-11T00:35:52.265Z,4.80
2019-04-11T00:38:50.948Z,4.73
2019-04-11T00:39:52.031Z,4.72
2019-04-11T00:40:51.225Z,4.65
2019-04-11T00:41:50.813Z,4.63
2019-04-11T00:42:50.775Z,4.62
2019-04-11T00:46:02.969Z,4.59
2019-04-11T00:47:02.019Z,4.55
2019-04-11T00:48:01.992Z,4.59
2019-04-11T00:49:02.004Z,4.50
2019-04-11T00:50:04.060Z,4.60
2019-04-11T00:51:01.921Z,4.51
2019-04-11T00:52:02.669Z,4.45
2019-04-11T00:53:01.871Z,4.51
2019-04-11T00:54:02.614Z,4.50
2019-04-11T00:55:02.919Z,4.54
2019-04-11T00:56:02.090Z,4.54
2019-04-11T00:57:01.772Z,4.47
2019-04-11T00:58:01.756Z,4.45
2019-04-11T00:59:02.493Z,4.45
2019-04-11T01:00:02.827Z,4.50
2019-04-11T01:01:01.816Z,4.40
2019-04-11T01:02:01.651Z,4.41
2019-04-11T01:03:02.026Z,4.33
2019-04-11T01:04:01.600Z,4.40
2019-04-11T01:05:01.583Z,4.37
2019-04-11T01:06:01.638Z,4.37
2019-04-11T01:07:02.662Z,4.37
2019-04-11T01:08:01.705Z,4.34
2019-04-11T01:11:01.639Z,4.24
2019-04-11T01:14:01.621Z,4.27
2019-04-11T01:15:01.342Z,4.24
2019-04-11T01:17:01.284Z,4.26
2019-04-11T01:19:02.490Z,4.27
2019-04-11T01:20:02.838Z,4.27
2019-04-11T01:21:02.044Z,4.29
2019-04-11T01:23:02.750Z,4.22
2019-04-11T01:28:01.221Z,4.16
2019-04-11T01:29:04.069Z,4.26
2019-04-11T01:32:02.142Z,4.11
2019-04-11T01:33:02.593Z,4.23
2019-04-11T01:39:01.021Z,4.26
2019-04-11T01:40:01.374Z,4.23
2019-04-11T01:41:00.698Z,4.24
2019-04-11T01:42:00.792Z,4.27
2019-04-11T01:43:01.832Z,4.29
2019-04-11T01:44:03.799Z,4.24
2019-04-11T01:45:01.052Z,4.16
2019-04-11T01:46:00.678Z,4.18
2019-04-11T01:47:00.553Z,4.08
2019-04-11T01:48:01.520Z,4.14
2019-04-11T01:49:00.693Z,4.06
2019-04-11T01:50:00.802Z,4.00
2019-04-11T01:51:01.211Z,4.00
2019-04-11T01:52:00.428Z,3.93
2019-04-11T01:53:00.571Z,3.90
2019-04-11T01:54:01.456Z,4.04
2019-04-11T01:55:00.355Z,4.02
2019-04-11T01:56:01.006Z,3.90
2019-04-11T01:57:01.371Z,3.96
2019-04-11T01:58:00.432Z,3.93
2019-04-11T01:59:00.259Z,3.93
2019-04-11T02:00:00.232Z,3.96
2019-04-11T02:01:00.801Z,3.96
2019-04-11T02:02:01.248Z,3.96
2019-04-11T02:03:01.222Z,3.91
2019-04-11T02:04:00.139Z,3.88
2019-04-11T02:05:00.772Z,3.80
2019-04-11T02:06:01.205Z,3.86
2019-04-11T02:07:00.388Z,3.84
2019-04-11T02:08:00.898Z,3.76
2019-04-11T02:09:00.026Z,3.79
2019-04-11T02:10:00.198Z,3.76
2019-04-11T02:10:59.960Z,3.88
2019-04-11T02:11:59.951Z,3.84
2019-04-11T02:12:59.914Z,3.79
2019-04-11T02:14:10.436Z,3.75
2019-04-11T02:14:59.863Z,3.75
2019-04-11T02:16:00.379Z,3.65
2019-04-11T02:16:59.821Z,3.62
2019-04-11T02:17:59.788Z,3.68
2019-04-11T02:18:59.773Z,3.75
2019-04-11T02:20:00.695Z,3.76
2019-04-11T02:20:59.715Z,3.76
2019-04-11T02:22:00.105Z,3.80
2019-04-11T02:22:59.666Z,3.75
2019-04-11T02:23:59.641Z,3.69
2019-04-11T02:25:00.592Z,3.75
2019-04-11T02:26:00.832Z,3.66
2019-04-11T02:27:00.766Z,3.65
2019-04-11T02:28:00.124Z,3.61
2019-04-11T02:28:59.526Z,3.54
2019-04-11T02:30:00.967Z,3.58
2019-04-11T02:31:00.148Z,3.52
2019-04-11T02:32:02.935Z,3.57
2019-04-11T02:33:00.325Z,3.55
2019-04-11T02:33:59.997Z,3.62
2019-04-11T02:35:01.936Z,3.51
2019-04-11T02:36:00.833Z,3.65
2019-04-11T02:37:00.479Z,3.47
2019-04-11T02:37:59.816Z,3.52
2019-04-11T02:39:03.749Z,3.48
2019-04-11T02:40:00.099Z,3.52
2019-04-11T02:41:01.059Z,3.48
2019-04-11T02:42:01.263Z,3.58
2019-04-11T02:42:59.453Z,3.52
2019-04-11T02:43:59.337Z,3.54
2019-04-11T02:45:13.227Z,3.47
2019-04-11T02:46:13.026Z,3.50
2019-04-11T02:47:05.259Z,3.52
2019-04-11T02:47:59.435Z,3.50
2019-04-11T02:49:01.030Z,3.48
2019-04-11T02:49:59.315Z,3.51
2019-04-11T02:51:00.908Z,3.51
2019-04-11T02:52:00.644Z,3.35
2019-04-11T02:53:00.820Z,3.40
2019-04-11T02:53:59.069Z,3.45
2019-04-11T02:54:58.879Z,3.48
2019-04-11T02:56:00.773Z,3.48
2019-04-11T02:57:00.635Z,3.43
2019-04-11T02:57:59.637Z,3.42
2019-04-11T02:58:59.935Z,3.33
2019-04-11T02:59:59.856Z,3.54
2019-04-11T03:01:01.849Z,3.42
2019-04-11T03:02:00.287Z,3.47
2019-04-11T03:02:59.459Z,3.47
2019-04-11T03:03:59.130Z,3.42
2019-04-11T03:05:00.357Z,3.40
2019-04-11T03:05:59.909Z,3.45
2019-04-11T03:07:00.021Z,3.36
2019-04-11T03:08:00.558Z,3.43
2019-04-11T03:08:59.302Z,3.45
2019-04-11T03:09:58.502Z,3.43
2019-04-11T03:10:59.519Z,3.42
2019-04-11T03:11:59.039Z,3.32
2019-04-11T03:12:59.069Z,3.42
2019-04-11T03:14:00.669Z,3.39
2019-04-11T03:15:16.642Z,3.42
2019-04-11T03:16:12.797Z,3.42
2019-04-11T03:17:08.219Z,3.36
2019-04-11T03:18:02.280Z,3.42
2019-04-11T03:19:15.934Z,3.33
2019-04-11T03:20:10.372Z,3.29
2019-04-11T03:21:04.538Z,3.33
2019-04-11T03:21:59.377Z,3.29
2019-04-11T03:23:04.837Z,3.31
2019-04-11T03:23:58.939Z,3.32
2019-04-11T03:25:00.133Z,3.39
2019-04-11T03:25:58.298Z,3.31
2019-04-11T03:27:00.408Z,3.31
2019-04-11T03:27:59.034Z,3.31
2019-04-11T03:28:59.702Z,3.24
2019-04-11T03:30:00.009Z,3.33
2019-04-11T03:31:26.858Z,3.28
2019-04-11T03:33:54.524Z,3.23
2019-04-11T03:34:59.330Z,3.26
2019-04-11T03:35:52.012Z,3.20
2019-04-11T03:36:50.240Z,3.28
2019-04-11T03:37:23.710Z,3.11
2019-04-11T03:38:18.873Z,3.11
2019-04-11T03:39:15.512Z,3.13
2019-04-11T03:40:19.013Z,3.11
2019-04-11T03:41:17.303Z,3.14
2019-04-11T03:42:16.034Z,3.11
2019-04-11T03:43:08.858Z,3.21
2019-04-11T03:44:04.454Z,3.10
2019-04-11T03:45:20.883Z,3.14
2019-04-11T03:46:14.297Z,3.13
2019-04-11T03:47:12.113Z,3.11
2019-04-11T03:48:10.078Z,3.11
2019-04-11T03:49:08.068Z,3.11
2019-04-11T03:50:05.064Z,3.13
2019-04-11T03:50:59.394Z,3.00
2019-04-11T03:51:58.588Z,3.02
2019-04-11T03:52:59.465Z,2.93
2019-04-11T03:53:59.179Z,2.85
2019-04-11T03:54:58.880Z,2.96
2019-04-11T03:55:57.358Z,2.99
2019-04-11T03:56:57.400Z,2.96
2019-04-11T03:57:59.151Z,3.00
2019-04-11T03:58:57.770Z,2.97
2019-04-11T03:59:58.844Z,2.97
2019-04-11T04:01:01.701Z,2.97
2019-04-11T04:01:59.069Z,2.96
2019-04-11T04:02:58.116Z,2.93
2019-04-11T04:03:58.375Z,2.90
2019-04-11T04:04:57.207Z,2.87
2019-04-11T04:05:57.997Z,2.89
2019-04-11T04:06:57.842Z,2.82
2019-04-11T04:07:58.243Z,2.81
2019-04-11T04:08:58.464Z,2.87
2019-04-11T04:09:58.503Z,2.90
2019-04-11T04:10:58.357Z,2.84
2019-04-11T04:11:58.955Z,2.89
2019-04-11T04:12:58.348Z,2.89
2019-04-11T04:13:57.075Z,2.87
2019-04-11T04:14:56.879Z,2.78
2019-04-11T04:16:07.801Z,2.93
2019-04-11T04:17:00.913Z,2.89
2019-04-11T04:17:57.319Z,2.82
2019-04-11T04:18:58.488Z,2.87
2019-04-11T04:19:56.807Z,2.79
2019-04-11T04:20:57.631Z,2.75
2019-04-11T04:21:57.562Z,2.79
2019-04-11T04:22:56.845Z,2.72
2019-04-11T04:23:59.309Z,2.77
2019-04-11T04:24:56.630Z,2.79
2019-04-11T04:25:56.605Z,2.84
2019-04-11T04:26:57.505Z,2.79
2019-04-11T04:27:56.999Z,2.81
2019-04-11T04:28:57.803Z,2.79
2019-04-11T04:29:58.522Z,2.74
2019-04-11T04:30:57.928Z,2.81
2019-04-11T04:31:57.288Z,2.85
2019-04-11T04:32:56.899Z,2.64
2019-04-11T04:33:57.778Z,2.77
2019-04-11T04:34:58.382Z,2.67
2019-04-11T04:35:57.905Z,2.72
2019-04-11T04:36:57.740Z,2.69
2019-04-11T04:37:56.944Z,2.69
2019-04-11T04:38:57.116Z,2.67
2019-04-11T04:40:13.468Z,2.72
2019-04-11T04:41:12.724Z,2.69
2019-04-11T04:42:03.921Z,2.67
2019-04-11T04:42:58.424Z,2.71
2019-04-11T04:43:57.517Z,2.66
2019-04-11T04:44:56.128Z,2.71
2019-04-11T04:46:12.168Z,2.72
2019-04-11T04:47:10.250Z,2.78
2019-04-11T04:48:02.676Z,2.72
2019-04-11T04:48:56.256Z,2.71
2019-04-11T04:49:57.104Z,2.74
2019-04-11T04:50:57.681Z,2.79
2019-04-11T04:51:56.175Z,2.81
2019-04-11T04:52:58.080Z,2.81
2019-04-11T04:53:57.767Z,2.79
2019-04-11T04:54:57.717Z,2.69
2019-04-11T04:55:57.275Z,2.67
2019-04-11T04:56:56.084Z,2.63
2019-04-11T04:57:57.520Z,2.77
2019-04-11T04:58:56.047Z,2.82
2019-04-11T04:59:57.689Z,2.72
2019-04-11T05:00:56.745Z,2.77
2019-04-11T05:01:55.941Z,2.75
2019-04-11T05:02:57.111Z,2.74
2019-04-11T05:03:56.417Z,2.79
2019-04-11T05:04:56.609Z,2.74
2019-04-11T05:05:55.605Z,2.64
2019-04-11T05:06:55.577Z,2.67
2019-04-11T05:07:56.342Z,2.72
2019-04-11T05:08:56.095Z,2.72
2019-04-11T05:09:56.646Z,2.77
2019-04-11T05:10:55.858Z,2.74
2019-04-11T05:11:55.476Z,2.66
2019-04-11T05:12:56.894Z,2.66
2019-04-11T05:13:56.642Z,2.75
2019-04-11T05:14:56.044Z,2.84
2019-04-11T05:16:07.317Z,2.74
2019-04-11T05:16:55.325Z,2.78
2019-04-11T05:17:55.333Z,2.79
2019-04-11T05:18:55.272Z,2.79
2019-04-11T05:19:56.193Z,2.81
2019-04-11T05:20:55.245Z,2.81
2019-04-11T05:21:55.199Z,2.85
2019-04-11T05:22:55.876Z,2.82
2019-04-11T05:23:56.396Z,2.81
2019-04-11T05:24:56.825Z,2.79
2019-04-11T05:25:55.145Z,2.82
2019-04-11T05:26:55.841Z,2.87
2019-04-11T05:27:55.920Z,2.87
2019-04-11T05:28:55.173Z,2.85
2019-04-11T05:29:54.999Z,2.90
2019-04-11T05:30:55.307Z,2.95
2019-04-11T05:31:54.945Z,2.93
2019-04-11T05:32:55.709Z,2.90
2019-04-11T05:33:56.066Z,2.96
2019-04-11T05:34:54.870Z,2.93
2019-04-11T05:35:54.844Z,2.90
2019-04-11T05:36:55.460Z,2.97
2019-04-11T05:37:55.750Z,2.99
2019-04-11T05:38:54.821Z,2.90
2019-04-11T05:39:54.744Z,2.96
2019-04-11T05:40:54.722Z,3.02
2019-04-11T05:41:54.694Z,3.06
2019-04-11T05:42:55.729Z,3.02
2019-04-11T05:43:55.730Z,3.10
2019-04-11T05:44:54.806Z,3.03
2019-04-11T05:45:56.347Z,3.08
2019-04-11T05:46:58.712Z,3.00
2019-04-11T05:47:56.362Z,3.05
2019-04-11T05:48:57.842Z,3.06
2019-04-11T05:49:54.767Z,3.08
2019-04-11T05:50:54.466Z,3.18
2019-04-11T05:51:58.160Z,3.10
2019-04-11T05:52:54.642Z,3.13
2019-04-11T05:53:55.740Z,3.14
2019-04-11T05:54:54.434Z,3.18
2019-04-11T05:55:55.265Z,3.08
2019-04-11T05:56:57.715Z,3.05
2019-04-11T05:57:54.477Z,3.14
2019-04-11T05:58:54.268Z,3.17
2019-04-11T05:59:55.125Z,3.26
2019-04-11T06:00:55.848Z,3.28
2019-04-11T06:01:54.972Z,3.21
2019-04-11T06:02:54.170Z,3.26
2019-04-11T06:03:55.395Z,3.24
2019-04-11T06:04:56.136Z,3.28
2019-04-11T06:05:56.318Z,3.33
2019-04-11T06:06:55.831Z,3.33
2019-04-11T06:07:57.245Z,3.39
2019-04-11T06:08:58.578Z,3.45
2019-04-11T06:09:54.616Z,3.35
2019-04-11T06:10:54.681Z,3.45
2019-04-11T06:11:55.881Z,3.47
2019-04-11T06:12:54.721Z,3.43
2019-04-11T06:13:53.883Z,3.50
2019-04-11T06:14:53.871Z,3.50
2019-04-11T06:15:53.833Z,3.47
2019-04-11T06:16:55.782Z,3.47
2019-04-11T06:17:54.550Z,3.50
2019-04-11T06:18:54.306Z,3.45
2019-04-11T06:19:53.731Z,3.50
2019-04-11T06:20:53.757Z,3.51
2019-04-11T06:21:53.681Z,3.47
2019-04-11T06:22:54.066Z,3.42
2019-04-11T06:23:53.875Z,3.52
2019-04-11T06:24:53.604Z,3.47
2019-04-11T06:25:53.580Z,3.48
2019-04-11T06:26:54.649Z,3.51
2019-04-11T06:27:53.744Z,3.47
2019-04-11T06:28:55.480Z,3.50
2019-04-11T06:29:53.481Z,3.58
2019-04-11T06:30:53.455Z,3.61
2019-04-11T06:31:53.429Z,3.73
2019-04-11T06:32:54.393Z,3.68
2019-04-11T06:33:53.396Z,3.66
2019-04-11T06:34:53.451Z,3.68
2019-04-11T06:35:54.484Z,3.75
2019-04-11T06:36:53.303Z,3.79
2019-04-11T06:37:54.245Z,3.84
2019-04-11T06:38:54.450Z,3.90
2019-04-11T06:39:53.960Z,3.88
2019-04-11T06:40:54.406Z,3.86
2019-04-11T06:41:53.174Z,4.00
2019-04-11T06:42:53.855Z,3.94
2019-04-11T06:43:53.152Z,3.91
2019-04-11T06:44:54.261Z,3.90
2019-04-11T06:45:53.077Z,4.04
2019-04-11T06:46:56.370Z,4.09
2019-04-11T06:47:53.501Z,4.16
2019-04-11T06:48:53.952Z,4.12
2019-04-11T06:49:53.084Z,4.15
2019-04-11T06:50:52.948Z,4.05
2019-04-11T06:51:53.912Z,4.08
2019-04-11T06:52:53.023Z,4.24
2019-04-11T06:53:52.873Z,4.20
2019-04-11T06:54:53.891Z,4.24
2019-04-11T06:55:53.159Z,4.27
2019-04-11T06:56:53.835Z,4.20
2019-04-11T06:57:52.771Z,4.33
2019-04-11T06:58:54.154Z,4.27
2019-04-11T06:59:52.721Z,4.30
2019-04-11T07:00:53.589Z,4.29
2019-04-11T07:01:53.075Z,4.40
2019-04-11T07:02:52.957Z,4.34
2019-04-11T07:03:53.250Z,4.42
2019-04-11T07:04:53.767Z,4.37
2019-04-11T07:05:53.137Z,4.40
2019-04-11T07:06:53.667Z,4.40
2019-04-11T07:07:53.642Z,4.34
2019-04-11T07:08:52.500Z,4.41
2019-04-11T07:09:53.449Z,4.47
2019-04-11T07:10:53.145Z,4.45
2019-04-11T07:11:52.700Z,4.54
2019-04-11T07:12:55.202Z,4.55
2019-04-11T07:13:53.294Z,4.65
2019-04-11T07:14:52.928Z,4.66
2019-04-11T07:15:52.860Z,4.77
2019-04-11T07:17:01.425Z,4.77
2019-04-11T07:17:52.566Z,4.82
2019-04-11T07:18:52.760Z,4.89
2019-04-11T07:19:52.223Z,4.92
2019-04-11T07:20:52.487Z,4.99
2019-04-11T07:21:52.595Z,4.91
2019-04-11T07:22:52.148Z,5.04
2019-04-11T07:23:53.274Z,5.06
2019-04-11T07:24:53.071Z,5.12
2019-04-11T07:25:52.085Z,5.33
2019-04-11T07:26:52.194Z,5.21
2019-04-11T07:27:52.738Z,5.22
2019-04-11T07:28:52.291Z,5.25
2019-04-11T07:29:51.979Z,5.33
2019-04-11T07:30:51.952Z,5.35
2019-04-11T07:31:53.077Z,5.17
2019-04-11T07:32:53.194Z,5.27
2019-04-11T07:33:51.959Z,5.36
2019-04-11T07:34:52.624Z,5.33
2019-04-11T07:35:52.906Z,5.31
2019-04-11T07:36:51.803Z,5.28
2019-04-11T07:37:53.161Z,5.39
2019-04-11T07:38:52.334Z,5.43
2019-04-11T07:39:51.728Z,5.63
2019-04-11T07:40:51.966Z,5.61
2019-04-11T07:41:52.151Z,5.60
2019-04-11T07:42:52.799Z,5.75
2019-04-11T07:43:52.051Z,5.90
2019-04-11T07:44:51.776Z,5.93
2019-04-11T07:45:51.584Z,6.03
2019-04-11T07:46:51.663Z,6.00
2019-04-11T07:47:52.642Z,6.09
2019-04-11T07:48:52.640Z,6.04
2019-04-11T07:49:54.924Z,6.08
2019-04-11T07:50:53.650Z,6.06
2019-04-11T07:51:52.726Z,6.06
2019-04-11T07:52:51.720Z,6.04
2019-04-11T07:53:52.512Z,6.14
2019-04-11T07:54:51.488Z,6.28
2019-04-11T07:55:51.346Z,6.28
2019-04-11T07:56:51.324Z,6.38
2019-04-11T07:57:52.314Z,6.58
2019-04-11T07:58:51.267Z,6.59
2019-04-11T07:59:51.307Z,6.62
2019-04-11T08:00:53.298Z,6.64
2019-04-11T08:01:51.203Z,6.59
2019-04-11T08:02:51.175Z,6.61
2019-04-11T08:03:51.336Z,6.62
2019-04-11T08:04:51.131Z,6.73
2019-04-11T08:05:51.116Z,6.77
2019-04-11T08:06:52.110Z,6.79
2019-04-11T08:07:51.477Z,6.66
2019-04-11T08:08:51.431Z,6.77
2019-04-11T08:09:51.010Z,6.73
2019-04-11T08:10:50.989Z,6.79
2019-04-11T08:11:51.909Z,6.73
2019-04-11T08:12:51.935Z,6.76
2019-04-11T08:13:53.588Z,6.77
2019-04-11T08:14:51.122Z,6.85
2019-04-11T08:15:50.870Z,6.92
2019-04-11T08:16:51.104Z,7.03
2019-04-11T08:17:50.821Z,6.92
2019-04-11T08:18:50.983Z,6.87
2019-04-11T08:19:51.238Z,6.89
2019-04-11T08:20:50.761Z,7.15
2019-04-11T08:21:50.727Z,7.15
2019-04-11T08:22:51.587Z,7.12
2019-04-11T08:23:50.684Z,7.10
2019-04-11T08:24:51.048Z,7.15
2019-04-11T08:25:50.633Z,7.16
2019-04-11T08:26:50.609Z,7.20
2019-04-11T08:27:58.306Z,7.13
2019-04-11T08:29:01.394Z,7.34
2019-04-11T08:29:51.624Z,7.25
2019-04-11T08:30:50.959Z,7.23
2019-04-11T08:31:51.514Z,7.31
2019-04-11T08:32:50.471Z,7.34
2019-04-11T08:33:50.967Z,7.49
2019-04-11T08:34:51.326Z,7.67
2019-04-11T08:35:53.455Z,7.67
2019-04-11T08:36:50.607Z,7.75
2019-04-11T08:37:50.367Z,7.89
2019-04-11T08:38:50.869Z,7.82
2019-04-11T08:39:50.316Z,7.63
2019-04-11T08:40:51.366Z,7.50
2019-04-11T08:41:50.261Z,7.61
2019-04-11T08:42:50.890Z,7.71
2019-04-11T08:43:51.201Z,7.46
2019-04-11T08:44:50.287Z,7.45
2019-04-11T08:45:50.642Z,7.49
2019-04-11T08:46:51.164Z,7.67
2019-04-11T08:47:54.337Z,7.72
2019-04-11T08:48:51.212Z,7.85
2019-04-11T08:49:50.236Z,7.95
2019-04-11T08:50:50.440Z,7.92
2019-04-11T08:51:50.040Z,8.05
2019-04-11T08:52:50.015Z,8.10
2019-04-11T08:53:50.939Z,8.07
2019-04-11T08:54:50.163Z,7.98
2019-04-11T08:55:55.304Z,7.92
2019-04-11T08:56:49.922Z,7.98
2019-04-11T08:57:49.971Z,7.97
2019-04-11T08:58:50.841Z,8.04
2019-04-11T08:59:49.853Z,7.98
2019-04-11T09:00:51.098Z,7.86
2019-04-11T09:01:49.807Z,7.98
2019-04-11T09:02:49.781Z,8.18
2019-04-11T09:04:01.346Z,8.05
2019-04-11T09:04:50.284Z,8.10
2019-04-11T09:05:49.712Z,8.04
2019-04-11T09:06:49.692Z,8.16
2019-04-11T09:07:49.877Z,8.15
2019-04-11T09:08:50.967Z,8.12
2019-04-11T09:09:49.661Z,7.98
2019-04-11T09:10:50.661Z,8.07
2019-04-11T09:11:49.817Z,8.28
2019-04-11T09:12:49.563Z,8.22
2019-04-11T09:13:49.535Z,8.34
2019-04-11T09:14:50.606Z,8.48
2019-04-11T09:15:49.488Z,8.58
2019-04-11T09:16:49.952Z,8.37
2019-04-11T09:17:59.074Z,8.55
2019-04-11T09:18:50.273Z,8.56
2019-04-11T09:19:49.443Z,8.56
2019-04-11T09:20:49.376Z,8.59
2019-04-11T09:21:49.355Z,8.58
2019-04-11T09:22:49.335Z,8.65
2019-04-11T09:23:50.173Z,8.65
2019-04-11T09:24:50.500Z,8.65
2019-04-11T09:25:51.677Z,8.73
2019-04-11T09:26:49.877Z,8.86
2019-04-11T09:27:49.218Z,8.86
2019-04-11T09:28:49.494Z,8.77
2019-04-11T09:29:50.311Z,8.89
2019-04-11T09:30:49.381Z,8.87
2019-04-11T09:31:49.553Z,8.87
2019-04-11T09:32:49.106Z,8.95
2019-04-11T09:33:49.139Z,8.98
2019-04-11T09:34:50.138Z,9.15
2019-04-11T09:35:49.249Z,9.15
2019-04-11T09:36:49.341Z,9.20
2019-04-11T09:37:49.656Z,9.28
2019-04-11T09:38:48.984Z,9.46
2019-04-11T09:39:48.951Z,9.60
2019-04-11T09:40:50.003Z,9.64
2019-04-11T09:41:48.998Z,9.64
2019-04-11T09:42:48.884Z,9.65
2019-04-11T09:43:48.880Z,9.46
2019-04-11T09:44:49.254Z,9.13
2019-04-11T09:45:50.842Z,9.05
2019-04-11T09:46:48.884Z,9.11
2019-04-11T09:47:49.767Z,9.23
2019-04-11T09:48:48.766Z,9.38
2019-04-11T09:49:48.734Z,9.46
2019-04-11T09:50:48.978Z,9.51
2019-04-11T09:51:49.794Z,9.54
2019-04-11T09:52:49.562Z,9.60
2019-04-11T09:53:48.656Z,9.64
2019-04-11T09:54:48.625Z,9.72
2019-04-11T09:55:48.600Z,9.83
2019-04-11T09:56:48.588Z,9.97
2019-04-11T09:57:48.571Z,9.97
2019-04-11T09:58:49.501Z,9.79
2019-04-11T09:59:49.647Z,9.81
2019-04-11T10:00:48.495Z,9.57
2019-04-11T10:01:49.396Z,9.43
2019-04-11T10:02:48.459Z,9.46
2019-04-11T10:03:48.665Z,9.48
2019-04-11T10:04:48.408Z,9.48
2019-04-11T10:05:49.909Z,9.36
2019-04-11T10:06:48.762Z,9.32
2019-04-11T10:07:48.343Z,9.35
2019-04-11T10:08:49.121Z,9.40
2019-04-11T10:09:48.520Z,9.26
2019-04-11T10:10:48.979Z,9.26
2019-04-11T10:11:48.532Z,9.31
2019-04-11T10:12:48.612Z,9.32
2019-04-11T10:13:49.074Z,9.51
2019-04-11T10:14:48.191Z,9.60
2019-04-11T10:15:48.221Z,9.83
2019-04-11T10:16:48.646Z,9.83
2019-04-11T10:17:48.501Z,9.91
2019-04-11T10:18:49.424Z,10.02
2019-04-11T10:19:48.458Z,10.14
2019-04-11T10:20:48.763Z,10.04
2019-04-11T10:21:48.037Z,10.17
2019-04-11T10:22:48.243Z,10.36
2019-04-11T10:23:49.198Z,10.52
2019-04-11T10:24:48.414Z,10.47
2019-04-11T10:25:47.952Z,10.48
2019-04-11T10:26:47.973Z,10.45
2019-04-11T10:27:48.959Z,10.41
2019-04-11T10:28:47.890Z,10.42
2019-04-11T10:29:48.338Z,10.52
2019-04-11T10:30:48.276Z,10.68
2019-04-11T10:31:47.820Z,10.61
2019-04-11T10:32:47.807Z,10.45
2019-04-11T10:33:48.929Z,10.53
2019-04-11T10:34:47.970Z,10.51
2019-04-11T10:35:48.330Z,10.52
2019-04-11T10:36:47.713Z,10.53
2019-04-11T10:37:47.780Z,10.45
2019-04-11T10:38:48.784Z,10.55
2019-04-11T10:39:47.650Z,10.64
2019-04-11T10:40:48.243Z,10.84
2019-04-11T10:41:49.097Z,10.56
2019-04-11T10:42:47.589Z,10.12
2019-04-11T10:43:47.604Z,9.81
2019-04-11T10:44:47.854Z,9.51
2019-04-11T10:45:47.523Z,9.39
2019-04-11T10:46:47.500Z,9.35
2019-04-11T10:47:47.478Z,9.32
2019-04-11T10:48:48.829Z,9.21
2019-04-11T10:49:47.437Z,9.47
2019-04-11T10:50:48.586Z,9.53
2019-04-11T10:51:47.665Z,9.26
2019-04-11T10:52:47.370Z,9.23
2019-04-11T10:53:47.349Z,9.26
2019-04-11T10:54:47.329Z,9.31
2019-04-11T10:55:47.306Z,9.31
2019-04-11T10:56:47.526Z,9.28
2019-04-11T10:57:48.627Z,9.31
2019-04-11T10:58:47.247Z,9.26
2019-04-11T10:59:47.221Z,9.31
2019-04-11T11:00:47.379Z,9.29
2019-04-11T11:01:48.394Z,9.33
2019-04-11T11:02:47.468Z,9.38
2019-04-11T11:03:47.411Z,9.36
2019-04-11T11:04:48.427Z,9.39
2019-04-11T11:05:47.257Z,9.40
2019-04-11T11:06:48.295Z,9.43
2019-04-11T11:07:47.039Z,9.36
2019-04-11T11:08:47.896Z,9.26
2019-04-11T11:09:47.191Z,9.20
2019-04-11T11:10:47.967Z,9.24
2019-04-11T11:11:46.952Z,9.15
2019-04-11T11:12:47.567Z,9.14
2019-04-11T11:13:47.930Z,9.02
2019-04-11T11:14:46.999Z,9.11
2019-04-11T11:15:47.552Z,9.05
2019-04-11T11:16:47.081Z,9.20
2019-04-11T11:18:20.621Z,9.28
2019-04-11T11:19:15.692Z,9.24
2019-04-11T11:19:59.313Z,9.31
2019-04-11T11:20:54.015Z,9.33
2019-04-11T11:21:47.106Z,9.32
2019-04-11T11:22:46.707Z,9.24
2019-04-11T11:23:49.134Z,9.02
2019-04-11T11:24:46.664Z,8.99
2019-04-11T11:25:49.735Z,8.95
2019-04-11T11:26:47.625Z,9.01
2019-04-11T11:27:46.595Z,9.17
2019-04-11T11:28:46.670Z,9.26
2019-04-11T11:29:47.506Z,9.50
2019-04-11T11:30:47.377Z,9.72
2019-04-11T11:31:47.654Z,9.87
2019-04-11T11:32:46.487Z,9.90
2019-04-11T11:33:46.892Z,9.89
2019-04-11T11:34:49.284Z,10.02
2019-04-11T11:35:47.747Z,9.96
2019-04-11T11:36:47.892Z,10.07
2019-04-11T11:37:47.185Z,10.22
2019-04-11T11:38:46.358Z,10.44
2019-04-11T11:39:46.957Z,10.53
2019-04-11T11:40:46.315Z,10.67
2019-04-11T11:41:46.886Z,10.85
2019-04-11T11:42:46.273Z,10.82
2019-04-11T11:43:48.255Z,10.89
2019-04-11T11:44:46.654Z,10.78
2019-04-11T11:45:49.170Z,10.70
2019-04-11T11:46:46.592Z,10.88
2019-04-11T11:47:46.161Z,10.86
2019-04-11T11:48:49.596Z,10.91
2019-04-11T11:49:56.510Z,10.89
2019-04-11T11:50:49.127Z,10.85
2019-04-11T11:51:46.074Z,10.76
2019-04-11T11:52:46.052Z,10.64
2019-04-11T11:53:46.914Z,10.55
2019-04-11T11:54:46.109Z,10.53
2019-04-11T11:55:45.990Z,10.52
2019-04-11T11:56:47.272Z,10.47
2019-04-11T11:57:46.810Z,10.38
2019-04-11T11:58:52.977Z,10.40
2019-04-11T11:59:45.907Z,10.42
2019-04-11T12:00:49.025Z,10.32
2019-04-11T12:01:49.308Z,10.14
2019-04-11T12:02:46.473Z,10.25
2019-04-11T12:03:46.648Z,10.25
2019-04-11T12:04:46.490Z,10.27
2019-04-11T12:05:48.682Z,10.07
2019-04-11T12:06:48.152Z,10.11
2019-04-11T12:07:45.727Z,10.11
2019-04-11T12:08:47.855Z,10.07
2019-04-11T12:09:46.688Z,10.08
2019-04-11T12:10:45.922Z,10.14
2019-04-11T12:11:46.374Z,10.14
2019-04-11T12:12:46.409Z,10.17
2019-04-11T12:13:45.709Z,10.14
2019-04-11T12:14:46.874Z,10.11
2019-04-11T12:15:45.640Z,10.08
2019-04-11T12:16:48.229Z,9.68
2019-04-11T12:17:45.528Z,9.69
2019-04-11T12:18:49.830Z,9.75
2019-04-11T12:19:52.925Z,9.61
2019-04-11T12:20:46.774Z,9.61
2019-04-11T12:21:48.576Z,9.53
2019-04-11T12:22:45.406Z,9.61
2019-04-11T12:23:55.550Z,9.68
2019-04-11T12:24:45.365Z,9.58
2019-04-11T12:25:45.339Z,9.56
2019-04-11T12:26:46.271Z,9.64
2019-04-11T12:27:45.787Z,9.51
2019-04-11T12:28:45.782Z,9.64
2019-04-11T12:29:48.792Z,9.71
2019-04-11T12:30:45.225Z,9.76
2019-04-11T12:31:46.071Z,9.71
2019-04-11T12:32:45.181Z,9.91
2019-04-11T12:33:45.780Z,9.91
2019-04-11T12:34:45.230Z,9.90
2019-04-11T12:35:45.113Z,9.84
2019-04-11T12:36:47.990Z,9.84
2019-04-11T12:37:45.419Z,9.81
2019-04-11T12:38:45.048Z,9.81
2019-04-11T12:39:45.043Z,9.91
2019-04-11T12:40:45.005Z,9.84
2019-04-11T12:41:44.989Z,9.83
2019-04-11T12:42:44.961Z,9.86
2019-04-11T12:43:44.937Z,9.84
2019-04-11T12:44:44.920Z,9.84
2019-04-11T12:45:44.894Z,9.90
2019-04-11T12:46:44.875Z,9.94
2019-04-11T12:47:44.858Z,9.94
2019-04-11T12:48:44.829Z,9.79
2019-04-11T12:49:52.808Z,9.68
2019-04-11T12:50:44.786Z,9.69
2019-04-11T12:51:44.761Z,9.65
2019-04-11T12:52:44.748Z,9.64
2019-04-11T12:53:44.732Z,9.60
2019-04-11T12:54:44.699Z,9.76
2019-04-11T12:55:44.678Z,9.83
2019-04-11T12:56:44.660Z,9.75
2019-04-11T12:57:44.632Z,9.79
2019-04-11T12:58:44.606Z,9.90
2019-04-11T12:59:44.588Z,9.76
2019-04-11T13:00:44.564Z,9.90
2019-04-11T13:01:44.538Z,9.78
2019-04-11T13:02:46.339Z,9.79
2019-04-11T13:03:44.498Z,9.84
2019-04-11T13:04:45.243Z,9.72
2019-04-11T13:05:44.457Z,9.81
2019-04-11T13:06:44.434Z,9.84
2019-04-11T13:07:44.414Z,9.87
2019-04-11T13:08:44.385Z,9.87
2019-04-11T13:09:46.005Z,9.91
2019-04-11T13:10:44.347Z,9.99
2019-04-11T13:11:44.318Z,10.04
2019-04-11T13:12:44.300Z,10.02
2019-04-11T13:13:44.275Z,10.11
2019-04-11T13:14:44.255Z,10.09
2019-04-11T13:15:44.235Z,10.07
2019-04-11T13:16:44.208Z,9.86
2019-04-11T13:17:44.187Z,9.83
2019-04-11T13:18:44.166Z,9.81
2019-04-11T13:19:44.142Z,9.76
2019-04-11T13:20:44.120Z,9.69
2019-04-11T13:21:44.098Z,9.74
2019-04-11T13:22:44.076Z,9.64
2019-04-11T13:23:44.052Z,9.74
2019-04-11T13:24:44.031Z,9.60
2019-04-11T13:25:45.578Z,9.64
2019-04-11T13:26:43.990Z,9.60
2019-04-11T13:27:43.968Z,9.51
2019-04-11T13:28:43.960Z,9.51
2019-04-11T13:29:43.929Z,9.50
2019-04-11T13:30:43.901Z,9.48
2019-04-11T13:31:43.882Z,9.46
2019-04-11T13:32:43.892Z,9.46
2019-04-11T13:33:43.833Z,9.40
2019-04-11T13:34:43.815Z,9.42
2019-04-11T13:35:43.793Z,9.46
2019-04-11T13:36:43.766Z,9.38
2019-04-11T13:37:43.750Z,9.46
2019-04-11T13:38:43.724Z,9.47
2019-04-11T13:39:43.698Z,9.60
2019-04-11T13:40:43.681Z,9.56
2019-04-11T13:41:43.666Z,9.60
2019-04-11T13:42:43.634Z,9.57
2019-04-11T13:43:43.620Z,9.58
2019-04-11T13:44:43.596Z,9.60
2019-04-11T13:45:43.566Z,9.58
2019-04-11T13:46:43.540Z,9.54
2019-04-11T13:47:43.518Z,9.64